createdAt,value
2017-11-24T00:00:23.489Z,95.70
2017-11-24T00:02:51.800Z,95.70
2017-11-24T00:05:19.392Z,95.60
2017-11-24T00:07:46.940Z,95.60
2017-11-24T00:10:14.484Z,95.60
2017-11-24T00:12:42.079Z,95.40
2017-11-24T00:15:09.627Z,95.20
2017-11-24T00:17:37.176Z,95.40
2017-11-24T00:20:04.772Z,95.30
2017-11-24T00:22:32.320Z,95.40
2017-11-24T00:24:59.868Z,95.80
2017-11-24T00:27:27.657Z,95.70
2017-11-24T00:29:55.202Z,95.70
2017-11-24T00:32:22.748Z,95.80
2017-11-24T00:34:51.269Z,95.90
2017-11-24T00:37:18.816Z,95.80
2017-11-24T00:39:47.128Z,96.00
2017-11-24T00:42:14.809Z,96.00
2017-11-24T00:44:42.352Z,96.10
2017-11-24T00:47:09.901Z,96.20
2017-11-24T00:49:37.484Z,96.20
2017-11-24T00:52:05.801Z,96.30
2017-11-24T00:54:33.339Z,96.30
2017-11-24T00:57:01.701Z,96.50
2017-11-24T00:59:29.253Z,96.50
2017-11-24T01:01:56.799Z,96.70
2017-11-24T01:04:24.508Z,96.70
2017-11-24T01:06:52.058Z,96.80
2017-11-24T01:09:19.621Z,96.70
2017-11-24T01:11:47.220Z,96.80
2017-11-24T01:14:14.765Z,96.90
2017-11-24T01:16:42.460Z,96.90
2017-11-24T01:19:10.044Z,96.80
2017-11-24T01:21:37.587Z,97.00
2017-11-24T01:24:05.125Z,97.10
2017-11-24T01:26:33.478Z,97.30
2017-11-24T01:29:01.020Z,97.30
2017-11-24T01:31:28.584Z,97.40
2017-11-24T01:33:56.176Z,97.60
2017-11-24T01:36:23.725Z,97.40
2017-11-24T01:38:51.274Z,97.60
2017-11-24T01:41:19.729Z,97.70
2017-11-24T01:43:47.276Z,97.60
2017-11-24T01:46:14.819Z,97.70
2017-11-24T01:48:42.432Z,97.80
2017-11-24T01:51:09.977Z,97.80
2017-11-24T01:53:37.516Z,98.00
2017-11-24T01:56:05.868Z,98.10
2017-11-24T01:58:33.412Z,98.10
2017-11-24T02:01:00.957Z,98.30
2017-11-24T02:03:29.325Z,98.50
2017-11-24T02:05:57.632Z,98.70
2017-11-24T02:08:25.948Z,98.50
2017-11-24T02:10:53.641Z,98.50
2017-11-24T02:13:21.189Z,98.50
2017-11-24T02:15:48.732Z,98.60
2017-11-24T02:18:17.283Z,98.70
2017-11-24T02:20:44.832Z,98.70
2017-11-24T02:23:12.372Z,98.80
2017-11-24T02:25:40.735Z,98.60
2017-11-24T02:28:08.288Z,98.50
2017-11-24T02:30:35.844Z,98.50
2017-11-24T02:33:03.453Z,98.40
2017-11-24T02:35:31.005Z,98.50
2017-11-24T02:37:58.549Z,98.40
2017-11-24T02:40:26.349Z,98.40
2017-11-24T02:42:53.903Z,98.30
2017-11-24T02:45:21.456Z,98.30
2017-11-24T02:47:49.048Z,98.40
2017-11-24T02:50:16.601Z,98.40
2017-11-24T02:52:44.152Z,98.40
2017-11-24T02:55:11.766Z,98.50
2017-11-24T02:57:39.312Z,98.50
2017-11-24T03:00:06.860Z,98.70
2017-11-24T03:02:35.405Z,98.80
2017-11-24T03:05:02.977Z,98.80
2017-11-24T03:07:30.525Z,98.90
2017-11-24T03:09:58.220Z,99.00
2017-11-24T03:12:25.780Z,99.00
2017-11-24T03:14:53.332Z,99.00
2017-11-24T03:17:21.859Z,98.90
2017-11-24T03:19:49.399Z,98.90
2017-11-24T03:22:16.945Z,98.70
2017-11-24T03:24:45.304Z,98.80
2017-11-24T03:27:12.852Z,99.10
2017-11-24T03:29:40.392Z,98.90
2017-11-24T03:32:07.984Z,98.90
2017-11-24T03:34:35.537Z,99.00
2017-11-24T03:37:03.087Z,99.10
2017-11-24T03:39:31.632Z,99.30
2017-11-24T03:41:59.177Z,99.20
2017-11-24T03:44:26.716Z,99.30
2017-11-24T03:46:54.312Z,99.30
2017-11-24T03:49:22.623Z,99.10
2017-11-24T03:51:50.181Z,99.10
2017-11-24T03:54:17.781Z,99.10
2017-11-24T03:56:45.325Z,98.90
2017-11-24T03:59:12.868Z,98.60
2017-11-24T04:01:41.220Z,98.50
2017-11-24T04:04:08.763Z,98.50
2017-11-24T04:06:36.316Z,98.90
2017-11-24T04:09:03.904Z,98.40
2017-11-24T04:11:31.448Z,98.40
2017-11-24T04:13:59.766Z,98.20
2017-11-24T04:16:27.349Z,98.20
2017-11-24T04:18:55.001Z,98.00
2017-11-24T04:21:22.559Z,97.80
2017-11-24T04:23:50.383Z,97.70
2017-11-24T04:26:17.938Z,97.60
2017-11-24T04:28:45.492Z,97.70
2017-11-24T04:31:13.099Z,97.80
2017-11-24T04:33:40.644Z,97.80
2017-11-24T04:36:08.196Z,97.60
2017-11-24T04:38:35.894Z,97.70
2017-11-24T04:41:03.437Z,97.60
2017-11-24T04:43:30.984Z,97.60
2017-11-24T04:45:58.572Z,97.50
2017-11-24T04:48:26.880Z,97.60
2017-11-24T04:50:54.430Z,97.60
2017-11-24T04:53:22.984Z,97.60
2017-11-24T04:55:50.532Z,97.60
2017-11-24T04:58:18.080Z,97.60
2017-11-24T05:00:45.678Z,97.40
2017-11-24T05:03:13.220Z,97.40
2017-11-24T05:05:41.533Z,97.50
2017-11-24T05:08:09.325Z,97.50
2017-11-24T05:10:36.872Z,97.60
2017-11-24T05:13:04.427Z,97.60
2017-11-24T05:15:32.787Z,97.40
2017-11-24T05:18:00.352Z,97.40
2017-11-24T05:20:27.904Z,97.40
2017-11-24T05:22:55.491Z,97.50
2017-11-24T05:25:23.814Z,97.40
2017-11-24T05:27:52.120Z,97.60
2017-11-24T05:30:19.713Z,97.50
2017-11-24T05:32:47.257Z,97.70
2017-11-24T05:35:14.820Z,98.00
2017-11-24T05:37:43.278Z,98.40
2017-11-24T05:40:10.828Z,98.40
2017-11-24T05:42:38.373Z,98.60
2017-11-24T05:45:05.980Z,98.80
2017-11-24T05:47:33.528Z,98.80
2017-11-24T05:50:01.145Z,99.10
2017-11-24T05:52:28.836Z,99.10
2017-11-24T05:54:57.151Z,99.70
2017-11-24T05:57:24.697Z,99.60
2017-11-24T05:59:53.096Z,99.90
2017-11-24T06:02:20.676Z,99.80
2017-11-24T06:04:48.224Z,99.80
2017-11-24T06:07:16.593Z,99.90
2017-11-24T06:09:44.148Z,99.90
2017-11-24T06:12:11.703Z,99.90
2017-11-24T06:14:39.304Z,99.90
2017-11-24T06:17:06.856Z,99.90
2017-11-24T06:19:34.421Z,99.90
2017-11-24T06:22:02.034Z,99.90
2017-11-24T06:24:29.599Z,99.90
2017-11-24T06:26:58.782Z,99.90
2017-11-24T06:29:26.368Z,99.90
2017-11-24T06:31:54.868Z,99.90
2017-11-24T06:34:22.411Z,99.90
2017-11-24T06:36:50.021Z,99.90
2017-11-24T06:39:17.567Z,99.90
2017-11-24T06:41:45.115Z,99.90
2017-11-24T06:44:12.732Z,99.90
2017-11-24T06:46:40.278Z,99.90
2017-11-24T06:49:07.828Z,99.90
2017-11-24T06:51:35.424Z,99.90
2017-11-24T06:54:02.972Z,99.90
2017-11-24T06:56:30.757Z,99.90
2017-11-24T06:58:58.371Z,99.90
2017-11-24T07:01:25.915Z,99.90
2017-11-24T07:03:53.460Z,99.90
2017-11-24T07:06:21.061Z,99.90
2017-11-24T07:08:49.624Z,99.90
2017-11-24T07:11:18.012Z,99.90
2017-11-24T07:13:45.604Z,99.90
2017-11-24T07:16:13.151Z,99.90
2017-11-24T07:18:40.699Z,99.90
2017-11-24T07:21:09.060Z,99.90
2017-11-24T07:23:36.884Z,99.90
2017-11-24T07:26:04.432Z,99.90
2017-11-24T07:28:32.981Z,99.90
2017-11-24T07:31:00.536Z,99.90
2017-11-24T07:33:28.084Z,99.90
2017-11-24T07:35:55.969Z,99.90
2017-11-24T07:38:23.512Z,99.90
2017-11-24T07:40:52.077Z,99.90
2017-11-24T07:43:19.668Z,99.90
2017-11-24T07:45:47.222Z,99.90
2017-11-24T07:48:15.556Z,99.90
2017-11-24T07:50:43.406Z,99.90
2017-11-24T07:53:11.453Z,99.90
2017-11-24T07:55:39.015Z,99.90
2017-11-24T07:58:06.620Z,99.90
2017-11-24T08:00:34.169Z,99.90
2017-11-24T08:03:01.720Z,99.90
2017-11-24T08:05:29.321Z,99.90
2017-11-24T08:07:56.869Z,99.90
2017-11-24T08:10:24.415Z,99.90
2017-11-24T08:12:52.781Z,99.90
2017-11-24T08:15:23.652Z,99.90
2017-11-24T08:17:51.211Z,99.90
2017-11-24T08:20:19.678Z,99.90
2017-11-24T08:22:47.221Z,99.90
2017-11-24T08:25:14.780Z,99.90
2017-11-24T08:27:42.576Z,99.90
2017-11-24T08:30:10.125Z,99.90
2017-11-24T08:32:38.821Z,99.90
2017-11-24T08:35:06.436Z,99.90
2017-11-24T08:37:33.980Z,99.90
2017-11-24T08:40:01.536Z,99.90
2017-11-24T08:42:30.593Z,99.90
2017-11-24T08:44:58.239Z,99.90
2017-11-24T08:47:31.517Z,99.90
2017-11-24T08:49:59.069Z,99.90
2017-11-24T08:52:27.381Z,99.90
2017-11-24T08:54:54.968Z,99.90
2017-11-24T08:57:22.516Z,99.90
2017-11-24T08:59:50.072Z,99.90
2017-11-24T09:02:17.671Z,99.90
2017-11-24T09:04:45.221Z,99.90
2017-11-24T09:07:12.772Z,99.90
2017-11-24T09:09:41.132Z,99.90
2017-11-24T09:12:08.681Z,99.90
2017-11-24T09:14:36.229Z,99.90
2017-11-24T09:17:03.833Z,99.90
2017-11-24T09:19:31.377Z,99.90
2017-11-24T09:21:58.928Z,99.60
2017-11-24T09:24:27.285Z,99.40
2017-11-24T09:26:54.845Z,99.10
2017-11-24T09:29:22.411Z,98.60
2017-11-24T09:31:50.029Z,98.30
2017-11-24T09:34:18.346Z,97.60
2017-11-24T09:36:45.887Z,97.60
2017-11-24T09:39:14.352Z,96.90
2017-11-24T09:41:41.900Z,96.90
2017-11-24T09:44:09.453Z,96.80
2017-11-24T09:46:37.252Z,97.10
2017-11-24T09:49:04.806Z,96.70
2017-11-24T09:51:32.352Z,96.30
2017-11-24T09:54:00.072Z,96.50
2017-11-24T09:56:27.621Z,96.80
2017-11-24T09:58:55.165Z,96.80
2017-11-24T10:01:22.764Z,97.30
2017-11-24T10:03:50.319Z,96.90
2017-11-24T10:06:17.871Z,96.50
2017-11-24T10:08:46.223Z,96.20
2017-11-24T10:11:13.777Z,96.20
2017-11-24T10:13:41.329Z,96.40
2017-11-24T10:16:09.132Z,96.40
2017-11-24T10:18:36.741Z,96.60
2017-11-24T10:21:10.937Z,96.60
2017-11-24T10:23:38.482Z,96.60
2017-11-24T10:26:06.046Z,96.50
2017-11-24T10:28:33.769Z,96.30
2017-11-24T10:31:01.324Z,96.20
2017-11-24T10:33:28.873Z,96.00
2017-11-24T10:35:56.460Z,97.10
2017-11-24T10:38:24.003Z,96.80
2017-11-24T10:40:51.559Z,97.10
2017-11-24T10:43:19.153Z,97.10
2017-11-24T10:45:46.728Z,96.80
2017-11-24T10:48:14.281Z,97.60
2017-11-24T10:50:41.997Z,96.70
2017-11-24T10:53:09.548Z,96.70
2017-11-24T10:55:37.093Z,96.70
2017-11-24T10:58:04.780Z,96.80
2017-11-24T11:00:32.327Z,96.50
2017-11-24T11:03:00.636Z,96.90
2017-11-24T11:05:28.237Z,97.20
2017-11-24T11:07:55.795Z,97.20
2017-11-24T11:10:23.360Z,97.30
2017-11-24T11:12:50.960Z,97.40
2017-11-24T11:15:18.510Z,97.40
2017-11-24T11:17:46.061Z,97.20
2017-11-24T11:20:13.674Z,97.00
2017-11-24T11:22:41.225Z,96.90
2017-11-24T11:25:08.775Z,97.00
2017-11-24T11:27:36.364Z,96.90
2017-11-24T11:30:03.908Z,96.70
2017-11-24T11:32:31.459Z,96.80
2017-11-24T11:34:59.056Z,96.40
2017-11-24T11:37:26.653Z,96.50
2017-11-24T11:39:54.213Z,95.90
2017-11-24T11:42:21.916Z,96.20
2017-11-24T11:44:49.464Z,96.30
2017-11-24T11:47:17.016Z,96.10
2017-11-24T11:49:44.697Z,95.70
2017-11-24T11:52:12.245Z,95.60
2017-11-24T11:54:40.558Z,95.50
2017-11-24T11:57:08.192Z,95.50
2017-11-24T11:59:35.740Z,94.90
2017-11-24T12:02:03.309Z,94.30
2017-11-24T12:04:30.908Z,93.70
2017-11-24T12:06:58.465Z,93.30
2017-11-24T12:09:26.024Z,93.50
2017-11-24T12:11:53.612Z,93.10
2017-11-24T12:14:21.194Z,92.90
2017-11-24T12:16:49.516Z,92.50
2017-11-24T12:19:17.310Z,92.40
2017-11-24T12:21:45.681Z,92.50
2017-11-24T12:24:14.373Z,92.40
2017-11-24T12:26:42.429Z,93.20
2017-11-24T12:29:09.988Z,93.10
2017-11-24T12:31:37.539Z,93.50
2017-11-24T12:34:05.917Z,93.60
2017-11-24T12:36:33.487Z,93.80
2017-11-24T12:39:03.837Z,94.00
2017-11-24T12:41:31.556Z,94.60
2017-11-24T12:43:59.864Z,94.50
2017-11-24T12:46:27.560Z,94.40
2017-11-24T12:48:55.465Z,94.80
2017-11-24T12:51:23.077Z,94.80
2017-11-24T12:53:50.644Z,95.00
2017-11-24T12:56:19.023Z,94.80
2017-11-24T12:58:46.577Z,94.80
2017-11-24T13:01:15.653Z,94.80
2017-11-24T13:03:43.245Z,94.80
2017-11-24T13:06:10.795Z,94.90
2017-11-24T13:08:38.347Z,95.00
2017-11-24T13:11:05.944Z,95.00
2017-11-24T13:13:33.501Z,95.00
2017-11-24T13:16:01.052Z,95.20
2017-11-24T13:18:29.890Z,95.10
2017-11-24T13:20:57.722Z,95.00
2017-11-24T13:23:26.046Z,95.30
2017-11-24T13:25:53.644Z,95.30
2017-11-24T13:28:21.212Z,95.40
2017-11-24T13:30:48.754Z,95.60
2017-11-24T13:33:16.461Z,95.60
2017-11-24T13:35:44.033Z,95.50
2017-11-24T13:38:11.603Z,95.60
2017-11-24T13:40:39.376Z,96.00
2017-11-24T13:43:06.920Z,96.50
2017-11-24T13:45:35.327Z,96.60
2017-11-24T13:48:02.929Z,96.90
2017-11-24T13:50:30.476Z,97.00
2017-11-24T13:52:58.029Z,97.00
2017-11-24T13:55:25.619Z,97.10
2017-11-24T13:57:53.289Z,97.10
2017-11-24T14:00:20.831Z,96.90
2017-11-24T14:02:48.424Z,97.20
2017-11-24T14:05:15.988Z,97.10
2017-11-24T14:07:43.533Z,97.20
2017-11-24T14:10:11.887Z,97.30
2017-11-24T14:12:39.437Z,97.20
2017-11-24T14:15:06.997Z,97.30
2017-11-24T14:17:34.589Z,97.30
2017-11-24T14:20:02.432Z,97.40
2017-11-24T14:22:30.748Z,97.60
2017-11-24T14:24:58.344Z,97.60
2017-11-24T14:27:25.889Z,97.50
2017-11-24T14:29:53.440Z,97.50
2017-11-24T14:32:21.109Z,97.80
2017-11-24T14:34:48.668Z,97.80
2017-11-24T14:37:17.182Z,97.90
2017-11-24T14:39:46.037Z,97.90
2017-11-24T14:42:14.056Z,98.00
2017-11-24T14:44:42.373Z,98.40
2017-11-24T14:47:09.977Z,98.30
2017-11-24T14:49:37.529Z,98.30
2017-11-24T14:52:05.319Z,98.50
2017-11-24T14:54:33.913Z,98.50
2017-11-24T14:57:01.521Z,98.70
2017-11-24T14:59:29.844Z,99.10
2017-11-24T15:04:27.467Z,99.20
2017-11-24T15:06:55.431Z,99.60
2017-11-24T15:09:23.005Z,99.70
2017-11-24T15:11:50.595Z,99.90
2017-11-24T15:14:18.316Z,99.90
2017-11-24T15:16:46.680Z,99.90
2017-11-24T15:19:14.360Z,99.90
2017-11-24T15:21:42.128Z,99.90
2017-11-24T15:24:09.879Z,99.90
2017-11-24T15:26:37.478Z,99.90
2017-11-24T15:29:05.580Z,99.90
2017-11-24T15:31:34.581Z,99.90
2017-11-24T15:34:04.114Z,99.90
2017-11-24T15:36:32.532Z,99.90
2017-11-24T15:39:01.396Z,99.90
2017-11-24T15:41:29.749Z,99.90
2017-11-24T15:43:57.295Z,99.90
2017-11-24T15:46:24.844Z,99.90
2017-11-24T15:48:52.444Z,99.90
2017-11-24T15:51:20.014Z,99.90
2017-11-24T15:53:47.953Z,99.90
2017-11-24T15:56:16.261Z,99.90
2017-11-24T15:58:43.804Z,99.90
2017-11-24T16:01:13.505Z,99.90
2017-11-24T16:03:42.073Z,99.90
2017-11-24T16:06:10.660Z,99.90
2017-11-24T16:08:43.730Z,99.90
2017-11-24T16:11:19.675Z,99.90
2017-11-24T16:13:48.688Z,99.90
2017-11-24T16:16:16.302Z,99.90
2017-11-24T16:18:44.957Z,99.90
2017-11-24T16:21:16.226Z,99.90
2017-11-24T16:23:43.781Z,99.90
2017-11-24T16:26:13.697Z,99.90
2017-11-24T16:28:44.106Z,99.90
2017-11-24T16:31:16.450Z,99.90
2017-11-24T16:33:49.589Z,99.90
2017-11-24T16:36:20.737Z,99.90
2017-11-24T16:38:50.981Z,99.90
2017-11-24T16:41:19.701Z,99.90
2017-11-24T16:43:50.738Z,99.90
2017-11-24T16:46:21.311Z,99.90
2017-11-24T16:48:52.993Z,99.90
2017-11-24T16:51:23.541Z,99.90
2017-11-24T16:53:52.594Z,99.90
2017-11-24T16:56:23.521Z,99.90
2017-11-24T16:58:57.840Z,99.90
2017-11-24T17:01:27.937Z,99.90
2017-11-24T17:03:57.661Z,99.90
2017-11-24T17:06:29.737Z,99.90
2017-11-24T17:08:58.306Z,99.90
2017-11-24T17:11:27.022Z,99.90
2017-11-24T17:13:55.907Z,99.90
2017-11-24T17:16:25.847Z,99.90
2017-11-24T17:18:54.569Z,99.90
2017-11-24T17:21:22.691Z,99.90
2017-11-24T17:23:51.151Z,99.90
2017-11-24T17:26:19.521Z,99.90
2017-11-24T17:28:48.235Z,99.90
2017-11-24T17:31:18.804Z,99.90
2017-11-24T17:33:47.352Z,99.90
2017-11-24T17:36:15.887Z,99.90
2017-11-24T17:38:44.429Z,99.90
2017-11-24T17:41:13.834Z,99.90
2017-11-24T17:43:42.306Z,99.90
2017-11-24T17:46:11.340Z,99.90
2017-11-24T17:48:40.242Z,99.90
2017-11-24T17:51:11.017Z,99.90
2017-11-24T17:53:39.341Z,99.90
2017-11-24T17:56:08.489Z,99.90
2017-11-24T17:58:36.365Z,99.90
2017-11-24T18:01:05.038Z,99.90
2017-11-24T18:03:33.765Z,99.90
2017-11-24T18:06:04.228Z,99.90
2017-11-24T18:08:32.185Z,99.90
2017-11-24T18:11:00.761Z,99.90
2017-11-24T18:13:28.746Z,99.90
2017-11-24T18:15:56.584Z,99.90
2017-11-24T18:18:24.492Z,99.90
2017-11-24T18:20:53.015Z,99.90
2017-11-24T18:23:22.743Z,99.90
2017-11-24T18:25:51.101Z,99.90
2017-11-24T18:28:18.919Z,99.90
2017-11-24T18:30:48.329Z,99.90
2017-11-24T18:33:16.090Z,99.90
2017-11-24T18:35:43.684Z,99.90
2017-11-24T18:38:12.712Z,99.90
2017-11-24T18:40:43.299Z,99.90
2017-11-24T18:43:11.300Z,99.90
2017-11-24T18:45:39.553Z,99.90
2017-11-24T18:48:08.631Z,99.90
2017-11-24T18:50:36.384Z,99.90
2017-11-24T18:53:03.986Z,99.90
2017-11-24T18:55:32.430Z,99.90
2017-11-24T18:58:01.218Z,99.90
2017-11-24T19:00:29.012Z,99.90
2017-11-24T19:02:56.773Z,99.90
2017-11-24T19:05:25.170Z,99.90
2017-11-24T19:07:53.054Z,99.90
2017-11-24T19:10:21.472Z,99.90
2017-11-24T19:12:50.529Z,99.90
2017-11-24T19:15:18.828Z,99.90
2017-11-24T19:17:46.436Z,99.90
2017-11-24T19:20:13.996Z,99.90
2017-11-24T19:22:41.653Z,99.90
2017-11-24T19:25:10.348Z,99.90
2017-11-24T19:27:38.327Z,99.90
2017-11-24T19:30:06.309Z,99.90
2017-11-24T19:32:34.087Z,99.90
2017-11-24T19:35:01.716Z,99.90
2017-11-24T19:37:29.301Z,99.90
2017-11-24T19:39:57.674Z,99.90
2017-11-24T19:42:26.842Z,99.90
2017-11-24T19:44:54.749Z,99.90
2017-11-24T19:47:23.147Z,99.90
2017-11-24T19:49:50.712Z,99.90
2017-11-24T19:52:19.050Z,99.90
2017-11-24T19:54:46.712Z,99.90
2017-11-24T19:57:14.300Z,99.90
2017-11-24T19:59:41.869Z,99.90
2017-11-24T20:02:09.512Z,99.90
2017-11-24T20:04:38.021Z,99.90
2017-11-24T20:07:07.188Z,99.90
2017-11-24T20:09:34.896Z,99.90
2017-11-24T20:12:03.229Z,99.90
2017-11-24T20:14:30.777Z,99.90
2017-11-24T20:16:58.630Z,99.90
2017-11-24T20:19:27.267Z,99.90
2017-11-24T20:21:55.320Z,99.90
2017-11-24T20:24:24.046Z,99.90
2017-11-24T20:26:51.626Z,99.90
2017-11-24T20:29:19.176Z,99.90
2017-11-24T20:31:46.860Z,99.90
2017-11-24T20:34:14.474Z,99.90
2017-11-24T20:36:42.022Z,99.90
2017-11-24T20:39:09.686Z,99.90
2017-11-24T20:41:37.245Z,99.90
2017-11-24T20:44:04.835Z,99.90
2017-11-24T20:46:32.434Z,99.90
2017-11-24T20:48:59.992Z,99.90
2017-11-24T20:51:28.166Z,99.90
2017-11-24T20:53:55.862Z,99.90
2017-11-24T20:56:23.929Z,99.90
2017-11-24T20:58:52.293Z,99.90
2017-11-24T21:01:20.196Z,99.90
2017-11-24T21:03:48.553Z,99.90
2017-11-24T21:06:16.525Z,99.90
2017-11-24T21:08:44.218Z,99.90
2017-11-24T21:11:12.052Z,99.90
2017-11-24T21:13:39.608Z,99.90
2017-11-24T21:16:07.208Z,99.90
2017-11-24T21:18:35.532Z,99.90
2017-11-24T21:21:03.088Z,99.90
2017-11-24T21:23:31.937Z,99.90
2017-11-24T21:25:59.556Z,99.90
2017-11-24T21:28:27.113Z,99.90
2017-11-24T21:30:55.535Z,99.90
2017-11-24T21:33:23.088Z,99.90
2017-11-24T21:35:50.684Z,99.90
2017-11-24T21:38:18.281Z,99.90
2017-11-24T21:40:45.832Z,99.90
2017-11-24T21:43:13.376Z,99.90
2017-11-24T21:45:40.975Z,99.90
2017-11-24T21:48:08.520Z,99.90
2017-11-24T21:50:36.072Z,99.90
2017-11-24T21:53:04.428Z,99.90
2017-11-24T21:55:31.978Z,99.90
2017-11-24T21:57:59.534Z,99.90
2017-11-24T22:00:27.231Z,99.90
2017-11-24T22:02:54.782Z,99.90
2017-11-24T22:05:22.333Z,99.90
2017-11-24T22:07:50.049Z,99.90
2017-11-24T22:10:17.597Z,99.90
2017-11-24T22:12:45.153Z,99.90
2017-11-24T22:15:13.543Z,99.90
2017-11-24T22:17:41.087Z,99.90
2017-11-24T22:20:08.636Z,99.90
2017-11-24T22:22:36.360Z,99.90
2017-11-24T22:25:03.908Z,99.90
2017-11-24T22:27:32.228Z,99.90
2017-11-24T22:29:59.825Z,99.90
2017-11-24T22:32:27.389Z,99.90
2017-11-24T22:34:54.949Z,99.90
2017-11-24T22:37:22.551Z,99.90
2017-11-24T22:39:50.115Z,99.90
2017-11-24T22:42:17.669Z,99.90
2017-11-24T22:44:45.276Z,99.90
2017-11-24T22:47:12.824Z,99.90
2017-11-24T22:49:40.369Z,99.90
2017-11-24T22:52:07.976Z,99.90
2017-11-24T22:54:35.525Z,99.90
2017-11-24T22:57:03.089Z,99.90
2017-11-24T22:59:30.797Z,99.90
2017-11-24T23:01:58.745Z,99.90
2017-11-24T23:04:26.300Z,99.90
2017-11-24T23:06:54.654Z,99.90
2017-11-24T23:09:22.213Z,99.90
2017-11-24T23:11:49.769Z,99.90
2017-11-24T23:14:17.368Z,99.90
2017-11-24T23:16:46.019Z,99.90
2017-11-24T23:19:13.577Z,99.90
2017-11-24T23:21:41.170Z,99.90
2017-11-24T23:24:09.060Z,99.90
2017-11-24T23:26:36.603Z,99.90
2017-11-24T23:29:04.312Z,99.90
2017-11-24T23:31:31.860Z,99.90
2017-11-24T23:33:59.413Z,99.90
2017-11-24T23:36:27.016Z,99.90
2017-11-24T23:38:54.568Z,99.90
2017-11-24T23:41:22.124Z,99.90
2017-11-24T23:43:49.814Z,99.90
2017-11-24T23:46:17.359Z,99.90
2017-11-24T23:48:45.673Z,99.90
2017-11-24T23:51:13.440Z,99.90
2017-11-24T23:53:40.991Z,99.90
2017-11-24T23:56:09.313Z,99.90
2017-11-24T23:58:36.912Z,99.90
